sensor_id;sensor_type;location;lat;lon;timestamp;temperature;humidity
12115;DHT22;6121;49.810;6.418;2023-03-16T00:01:05;1.60;99.90
12115;DHT22;6121;49.810;6.418;2023-03-16T00:03:32;1.40;99.90
12115;DHT22;6121;49.810;6.418;2023-03-16T00:05:59;1.20;99.90
12115;DHT22;6121;49.810;6.418;2023-03-16T00:08:25;1.10;99.90
12115;DHT22;6121;49.810;6.418;2023-03-16T00:10:52;1.20;99.90
12115;DHT22;6121;49.810;6.418;2023-03-16T00:13:20;1.00;99.90
12115;DHT22;6121;49.810;6.418;2023-03-16T00:15:58;1.10;99.90
12115;DHT22;6121;49.810;6.418;2023-03-16T00:18:26;1.30;99.90
12115;DHT22;6121;49.810;6.418;2023-03-16T00:20:53;1.20;99.90
12115;DHT22;6121;49.810;6.418;2023-03-16T00:23:20;1.30;99.90
12115;DHT22;6121;49.810;6.418;2023-03-16T00:25:56;1.20;99.90
12115;DHT22;6121;49.810;6.418;2023-03-16T00:28:31;1.10;99.90
12115;DHT22;6121;49.810;6.418;2023-03-16T00:31:04;1.00;99.90
12115;DHT22;6121;49.810;6.418;2023-03-16T00:33:30;1.00;99.90
12115;DHT22;6121;49.810;6.418;2023-03-16T00:36:06;1.10;99.90
12115;DHT22;6121;49.810;6.418;2023-03-16T00:38:36;1.40;99.90
12115;DHT22;6121;49.810;6.418;2023-03-16T00:41:04;1.40;99.90
12115;DHT22;6121;49.810;6.418;2023-03-16T00:43:31;1.50;99.90
12115;DHT22;6121;49.810;6.418;2023-03-16T00:45:58;1.50;99.90
12115;DHT22;6121;49.810;6.418;2023-03-16T00:48:26;1.70;99.90
12115;DHT22;6121;49.810;6.418;2023-03-16T00:50:52;1.70;99.90
12115;DHT22;6121;49.810;6.418;2023-03-16T00:53:20;1.70;99.90
12115;DHT22;6121;49.810;6.418;2023-03-16T00:55:46;1.70;99.90
12115;DHT22;6121;49.810;6.418;2023-03-16T00:58:12;1.70;99.90
12115;DHT22;6121;49.810;6.418;2023-03-16T01:00:39;1.70;99.90
12115;DHT22;6121;49.810;6.418;2023-03-16T01:03:06;1.70;99.90
12115;DHT22;6121;49.810;6.418;2023-03-16T01:05:32;1.60;99.90
12115;DHT22;6121;49.810;6.418;2023-03-16T01:07:58;1.30;99.90
12115;DHT22;6121;49.810;6.418;2023-03-16T01:10:27;1.30;99.90
12115;DHT22;6121;49.810;6.418;2023-03-16T01:12:52;1.20;99.90
12115;DHT22;6121;49.810;6.418;2023-03-16T01:15:21;1.30;99.90
12115;DHT22;6121;49.810;6.418;2023-03-16T01:17:47;1.20;99.90
12115;DHT22;6121;49.810;6.418;2023-03-16T01:20:13;1.10;99.90
12115;DHT22;6121;49.810;6.418;2023-03-16T01:22:44;0.90;99.90
12115;DHT22;6121;49.810;6.418;2023-03-16T01:25:11;0.70;99.90
12115;DHT22;6121;49.810;6.418;2023-03-16T01:27:39;0.80;99.90
12115;DHT22;6121;49.810;6.418;2023-03-16T01:30:05;0.90;99.90
12115;DHT22;6121;49.810;6.418;2023-03-16T01:32:32;1.10;99.90
12115;DHT22;6121;49.810;6.418;2023-03-16T01:34:59;1.10;99.90
12115;DHT22;6121;49.810;6.418;2023-03-16T01:37:25;1.10;99.90
12115;DHT22;6121;49.810;6.418;2023-03-16T01:39:56;0.90;99.90
12115;DHT22;6121;49.810;6.418;2023-03-16T01:42:22;1.00;99.90
12115;DHT22;6121;49.810;6.418;2023-03-16T01:47:16;1.00;99.90
12115;DHT22;6121;49.810;6.418;2023-03-16T01:49:43;1.00;99.90
12115;DHT22;6121;49.810;6.418;2023-03-16T01:52:19;0.90;99.90
12115;DHT22;6121;49.810;6.418;2023-03-16T01:54:58;1.10;99.90
12115;DHT22;6121;49.810;6.418;2023-03-16T01:57:27;1.20;99.90
12115;DHT22;6121;49.810;6.418;2023-03-16T02:00:00;1.10;99.90
12115;DHT22;6121;49.810;6.418;2023-03-16T02:02:42;1.10;99.90
12115;DHT22;6121;49.810;6.418;2023-03-16T02:05:18;1.00;99.90
12115;DHT22;6121;49.810;6.418;2023-03-16T02:07:50;1.10;99.90
12115;DHT22;6121;49.810;6.418;2023-03-16T02:10:18;1.20;99.90
12115;DHT22;6121;49.810;6.418;2023-03-16T02:12:45;1.20;99.90
12115;DHT22;6121;49.810;6.418;2023-03-16T02:15:12;1.40;99.90
12115;DHT22;6121;49.810;6.418;2023-03-16T02:17:42;1.50;99.90
12115;DHT22;6121;49.810;6.418;2023-03-16T02:23:11;1.30;99.90
12115;DHT22;6121;49.810;6.418;2023-03-16T02:25:48;1.20;99.90
12115;DHT22;6121;49.810;6.418;2023-03-16T02:28:22;1.30;99.90
12115;DHT22;6121;49.810;6.418;2023-03-16T02:30:50;1.20;99.90
12115;DHT22;6121;49.810;6.418;2023-03-16T02:33:17;1.10;99.90
12115;DHT22;6121;49.810;6.418;2023-03-16T02:35:43;1.10;99.90
12115;DHT22;6121;49.810;6.418;2023-03-16T02:38:09;1.10;99.90
12115;DHT22;6121;49.810;6.418;2023-03-16T02:40:41;1.00;99.90
12115;DHT22;6121;49.810;6.418;2023-03-16T02:43:17;1.10;99.90
12115;DHT22;6121;49.810;6.418;2023-03-16T02:45:58;1.10;99.90
12115;DHT22;6121;49.810;6.418;2023-03-16T02:48:36;1.10;99.90
12115;DHT22;6121;49.810;6.418;2023-03-16T02:51:05;1.20;99.90
12115;DHT22;6121;49.810;6.418;2023-03-16T02:53:31;1.20;99.90
12115;DHT22;6121;49.810;6.418;2023-03-16T02:55:59;1.20;99.90
12115;DHT22;6121;49.810;6.418;2023-03-16T02:58:28;1.10;99.90
12115;DHT22;6121;49.810;6.418;2023-03-16T03:00:55;1.10;99.90
12115;DHT22;6121;49.810;6.418;2023-03-16T03:03:22;1.40;99.90
12115;DHT22;6121;49.810;6.418;2023-03-16T03:05:48;1.20;99.90
12115;DHT22;6121;49.810;6.418;2023-03-16T03:08:14;1.20;99.90
12115;DHT22;6121;49.810;6.418;2023-03-16T03:10:41;1.30;99.90
12115;DHT22;6121;49.810;6.418;2023-03-16T03:13:08;1.20;99.90
12115;DHT22;6121;49.810;6.418;2023-03-16T03:15:34;1.20;99.90
12115;DHT22;6121;49.810;6.418;2023-03-16T03:18:05;1.30;99.90
12115;DHT22;6121;49.810;6.418;2023-03-16T03:20:32;1.40;99.90
12115;DHT22;6121;49.810;6.418;2023-03-16T03:22:58;1.40;99.90
12115;DHT22;6121;49.810;6.418;2023-03-16T03:25:24;1.20;99.90
12115;DHT22;6121;49.810;6.418;2023-03-16T03:27:53;1.40;99.90
12115;DHT22;6121;49.810;6.418;2023-03-16T03:30:22;1.30;99.90
12115;DHT22;6121;49.810;6.418;2023-03-16T03:32:49;1.20;99.90
12115;DHT22;6121;49.810;6.418;2023-03-16T03:35:19;1.20;99.90
12115;DHT22;6121;49.810;6.418;2023-03-16T03:37:46;1.10;99.90
12115;DHT22;6121;49.810;6.418;2023-03-16T03:40:15;1.10;99.90
12115;DHT22;6121;49.810;6.418;2023-03-16T03:42:43;1.30;99.90
12115;DHT22;6121;49.810;6.418;2023-03-16T03:45:10;1.30;99.90
12115;DHT22;6121;49.810;6.418;2023-03-16T03:47:39;1.30;99.90
12115;DHT22;6121;49.810;6.418;2023-03-16T03:50:07;1.30;99.90
12115;DHT22;6121;49.810;6.418;2023-03-16T03:52:43;1.20;99.90
12115;DHT22;6121;49.810;6.418;2023-03-16T03:55:09;1.10;99.90
12115;DHT22;6121;49.810;6.418;2023-03-16T03:57:35;1.20;99.90
12115;DHT22;6121;49.810;6.418;2023-03-16T04:00:01;1.20;99.90
12115;DHT22;6121;49.810;6.418;2023-03-16T04:02:38;1.30;99.90
12115;DHT22;6121;49.810;6.418;2023-03-16T04:05:07;1.30;99.90
12115;DHT22;6121;49.810;6.418;2023-03-16T04:07:33;1.20;99.90
12115;DHT22;6121;49.810;6.418;2023-03-16T04:10:04;1.30;99.90
12115;DHT22;6121;49.810;6.418;2023-03-16T04:12:36;1.30;99.90
12115;DHT22;6121;49.810;6.418;2023-03-16T04:15:03;1.10;99.90
12115;DHT22;6121;49.810;6.418;2023-03-16T04:17:34;1.20;99.90
12115;DHT22;6121;49.810;6.418;2023-03-16T04:20:04;1.30;99.90
12115;DHT22;6121;49.810;6.418;2023-03-16T04:22:41;1.30;99.90
12115;DHT22;6121;49.810;6.418;2023-03-16T04:25:10;1.20;99.90
12115;DHT22;6121;49.810;6.418;2023-03-16T04:27:37;1.30;99.90
12115;DHT22;6121;49.810;6.418;2023-03-16T04:30:12;1.30;99.90
12115;DHT22;6121;49.810;6.418;2023-03-16T04:32:43;1.20;99.90
12115;DHT22;6121;49.810;6.418;2023-03-16T04:35:14;1.20;99.90
12115;DHT22;6121;49.810;6.418;2023-03-16T04:37:46;1.40;99.90
12115;DHT22;6121;49.810;6.418;2023-03-16T04:40:12;1.40;99.90
12115;DHT22;6121;49.810;6.418;2023-03-16T04:42:46;1.30;99.90
12115;DHT22;6121;49.810;6.418;2023-03-16T04:45:16;1.30;99.90
12115;DHT22;6121;49.810;6.418;2023-03-16T04:47:43;1.20;99.90
12115;DHT22;6121;49.810;6.418;2023-03-16T04:50:10;1.30;99.90
12115;DHT22;6121;49.810;6.418;2023-03-16T04:52:37;1.40;99.90
12115;DHT22;6121;49.810;6.418;2023-03-16T04:55:04;1.40;99.90
12115;DHT22;6121;49.810;6.418;2023-03-16T04:57:31;1.40;99.90
12115;DHT22;6121;49.810;6.418;2023-03-16T04:59:57;1.30;99.90
12115;DHT22;6121;49.810;6.418;2023-03-16T05:02:33;1.30;99.90
12115;DHT22;6121;49.810;6.418;2023-03-16T05:05:01;1.40;99.90
12115;DHT22;6121;49.810;6.418;2023-03-16T05:07:28;1.30;99.90
12115;DHT22;6121;49.810;6.418;2023-03-16T05:09:55;1.30;99.90
12115;DHT22;6121;49.810;6.418;2023-03-16T05:12:21;1.40;99.90
12115;DHT22;6121;49.810;6.418;2023-03-16T05:14:51;1.20;99.90
12115;DHT22;6121;49.810;6.418;2023-03-16T05:17:35;1.30;99.90
12115;DHT22;6121;49.810;6.418;2023-03-16T05:20:02;1.30;99.90
12115;DHT22;6121;49.810;6.418;2023-03-16T05:22:33;1.40;99.90
12115;DHT22;6121;49.810;6.418;2023-03-16T05:25:11;1.40;99.90
12115;DHT22;6121;49.810;6.418;2023-03-16T05:27:49;1.50;99.90
12115;DHT22;6121;49.810;6.418;2023-03-16T05:30:23;1.50;99.90
12115;DHT22;6121;49.810;6.418;2023-03-16T05:32:51;1.60;99.90
12115;DHT22;6121;49.810;6.418;2023-03-16T05:35:18;1.70;99.90
12115;DHT22;6121;49.810;6.418;2023-03-16T05:37:44;1.60;99.90
12115;DHT22;6121;49.810;6.418;2023-03-16T05:40:15;1.60;99.90
12115;DHT22;6121;49.810;6.418;2023-03-16T05:42:56;1.60;99.90
12115;DHT22;6121;49.810;6.418;2023-03-16T05:45:23;1.70;99.90
12115;DHT22;6121;49.810;6.418;2023-03-16T05:48:00;1.70;99.90
12115;DHT22;6121;49.810;6.418;2023-03-16T05:50:27;1.70;99.90
12115;DHT22;6121;49.810;6.418;2023-03-16T05:52:53;1.80;99.90
12115;DHT22;6121;49.810;6.418;2023-03-16T05:55:22;1.70;99.90
12115;DHT22;6121;49.810;6.418;2023-03-16T05:57:54;1.80;99.90
12115;DHT22;6121;49.810;6.418;2023-03-16T06:00:20;1.80;99.90
12115;DHT22;6121;49.810;6.418;2023-03-16T06:02:55;1.90;99.90
12115;DHT22;6121;49.810;6.418;2023-03-16T06:05:27;1.90;99.90
12115;DHT22;6121;49.810;6.418;2023-03-16T06:07:54;1.90;99.90
12115;DHT22;6121;49.810;6.418;2023-03-16T06:10:20;1.90;99.90
12115;DHT22;6121;49.810;6.418;2023-03-16T06:12:46;1.90;99.90
12115;DHT22;6121;49.810;6.418;2023-03-16T06:15:12;1.90;99.90
12115;DHT22;6121;49.810;6.418;2023-03-16T06:17:39;1.80;99.90
12115;DHT22;6121;49.810;6.418;2023-03-16T06:20:08;1.70;99.90
12115;DHT22;6121;49.810;6.418;2023-03-16T06:22:40;1.80;99.90
12115;DHT22;6121;49.810;6.418;2023-03-16T06:25:08;1.90;99.90
12115;DHT22;6121;49.810;6.418;2023-03-16T06:27:35;1.80;99.90
12115;DHT22;6121;49.810;6.418;2023-03-16T06:30:12;1.80;99.90
12115;DHT22;6121;49.810;6.418;2023-03-16T06:32:38;2.00;99.90
12115;DHT22;6121;49.810;6.418;2023-03-16T06:35:08;1.90;99.90
12115;DHT22;6121;49.810;6.418;2023-03-16T06:37:36;1.90;99.90
12115;DHT22;6121;49.810;6.418;2023-03-16T06:40:14;2.00;99.90
12115;DHT22;6121;49.810;6.418;2023-03-16T06:42:39;2.10;99.90
12115;DHT22;6121;49.810;6.418;2023-03-16T06:45:09;2.30;99.90
12115;DHT22;6121;49.810;6.418;2023-03-16T06:47:36;2.20;99.90
12115;DHT22;6121;49.810;6.418;2023-03-16T06:50:03;2.10;99.90
12115;DHT22;6121;49.810;6.418;2023-03-16T06:52:29;2.30;99.90
12115;DHT22;6121;49.810;6.418;2023-03-16T06:54:56;2.30;99.90
12115;DHT22;6121;49.810;6.418;2023-03-16T06:57:24;2.40;99.90
12115;DHT22;6121;49.810;6.418;2023-03-16T06:59:50;2.30;99.90
12115;DHT22;6121;49.810;6.418;2023-03-16T07:02:16;2.40;99.90
12115;DHT22;6121;49.810;6.418;2023-03-16T07:04:42;2.20;99.90
12115;DHT22;6121;49.810;6.418;2023-03-16T07:07:08;2.40;99.90
12115;DHT22;6121;49.810;6.418;2023-03-16T07:09:35;2.40;99.90
12115;DHT22;6121;49.810;6.418;2023-03-16T07:12:00;2.50;99.90
12115;DHT22;6121;49.810;6.418;2023-03-16T07:14:26;2.60;99.90
12115;DHT22;6121;49.810;6.418;2023-03-16T07:16:54;2.80;99.90
12115;DHT22;6121;49.810;6.418;2023-03-16T07:19:21;3.00;99.90
12115;DHT22;6121;49.810;6.418;2023-03-16T07:21:48;2.90;99.90
12115;DHT22;6121;49.810;6.418;2023-03-16T07:24:18;3.00;99.90
12115;DHT22;6121;49.810;6.418;2023-03-16T07:26:44;3.00;99.90
12115;DHT22;6121;49.810;6.418;2023-03-16T07:29:19;3.10;99.90
12115;DHT22;6121;49.810;6.418;2023-03-16T07:31:46;3.20;99.90
12115;DHT22;6121;49.810;6.418;2023-03-16T07:34:17;3.20;99.90
12115;DHT22;6121;49.810;6.418;2023-03-16T07:36:47;3.20;99.90
12115;DHT22;6121;49.810;6.418;2023-03-16T07:39:14;3.20;99.90
12115;DHT22;6121;49.810;6.418;2023-03-16T07:41:42;3.00;99.90
12115;DHT22;6121;49.810;6.418;2023-03-16T07:44:17;3.30;99.90
12115;DHT22;6121;49.810;6.418;2023-03-16T07:46:47;3.40;99.90
12115;DHT22;6121;49.810;6.418;2023-03-16T07:49:13;3.60;99.90
12115;DHT22;6121;49.810;6.418;2023-03-16T07:51:43;3.70;99.90
12115;DHT22;6121;49.810;6.418;2023-03-16T07:54:10;3.80;99.90
12115;DHT22;6121;49.810;6.418;2023-03-16T07:56:36;3.90;99.90
12115;DHT22;6121;49.810;6.418;2023-03-16T07:59:02;3.90;99.90
12115;DHT22;6121;49.810;6.418;2023-03-16T08:01:30;3.80;99.90
12115;DHT22;6121;49.810;6.418;2023-03-16T08:03:55;4.20;99.90
12115;DHT22;6121;49.810;6.418;2023-03-16T08:06:21;4.60;99.90
12115;DHT22;6121;49.810;6.418;2023-03-16T08:08:50;4.90;99.90
12115;DHT22;6121;49.810;6.418;2023-03-16T08:11:26;4.90;99.90
12115;DHT22;6121;49.810;6.418;2023-03-16T08:13:56;4.90;99.90
12115;DHT22;6121;49.810;6.418;2023-03-16T08:16:25;5.00;99.90
12115;DHT22;6121;49.810;6.418;2023-03-16T08:18:59;4.90;99.90
12115;DHT22;6121;49.810;6.418;2023-03-16T08:21:26;5.00;99.90
12115;DHT22;6121;49.810;6.418;2023-03-16T08:23:53;5.40;99.90
12115;DHT22;6121;49.810;6.418;2023-03-16T08:26:20;5.40;99.90
12115;DHT22;6121;49.810;6.418;2023-03-16T08:28:51;5.70;99.90
12115;DHT22;6121;49.810;6.418;2023-03-16T08:31:19;5.90;99.90
12115;DHT22;6121;49.810;6.418;2023-03-16T08:34:02;6.10;99.90
12115;DHT22;6121;49.810;6.418;2023-03-16T08:36:30;6.30;99.90
12115;DHT22;6121;49.810;6.418;2023-03-16T08:38:58;6.70;99.90
12115;DHT22;6121;49.810;6.418;2023-03-16T08:41:25;6.90;99.90
12115;DHT22;6121;49.810;6.418;2023-03-16T08:43:53;7.00;99.90
12115;DHT22;6121;49.810;6.418;2023-03-16T08:46:19;7.10;99.90
12115;DHT22;6121;49.810;6.418;2023-03-16T08:48:51;7.60;99.90
12115;DHT22;6121;49.810;6.418;2023-03-16T08:51:17;8.10;99.90
12115;DHT22;6121;49.810;6.418;2023-03-16T08:53:44;8.30;99.90
12115;DHT22;6121;49.810;6.418;2023-03-16T08:56:12;8.60;99.90
12115;DHT22;6121;49.810;6.418;2023-03-16T08:58:40;8.60;99.90
12115;DHT22;6121;49.810;6.418;2023-03-16T09:01:11;9.10;99.90
12115;DHT22;6121;49.810;6.418;2023-03-16T09:03:38;9.60;99.90
12115;DHT22;6121;49.810;6.418;2023-03-16T09:06:08;9.90;99.90
12115;DHT22;6121;49.810;6.418;2023-03-16T09:08:35;10.00;99.90
12115;DHT22;6121;49.810;6.418;2023-03-16T09:11:03;10.00;99.90
12115;DHT22;6121;49.810;6.418;2023-03-16T09:13:30;10.40;99.90
12115;DHT22;6121;49.810;6.418;2023-03-16T09:15:56;10.20;99.90
12115;DHT22;6121;49.810;6.418;2023-03-16T09:18:23;10.00;99.90
12115;DHT22;6121;49.810;6.418;2023-03-16T09:21:01;10.70;99.90
12115;DHT22;6121;49.810;6.418;2023-03-16T09:23:28;11.20;99.90
12115;DHT22;6121;49.810;6.418;2023-03-16T09:25:58;11.10;99.90
12115;DHT22;6121;49.810;6.418;2023-03-16T09:28:26;11.40;99.90
12115;DHT22;6121;49.810;6.418;2023-03-16T09:30:53;11.70;99.60
12115;DHT22;6121;49.810;6.418;2023-03-16T09:33:20;12.00;99.80
12115;DHT22;6121;49.810;6.418;2023-03-16T09:35:46;12.10;99.30
12115;DHT22;6121;49.810;6.418;2023-03-16T09:38:12;12.20;99.10
12115;DHT22;6121;49.810;6.418;2023-03-16T09:40:38;12.30;97.70
12115;DHT22;6121;49.810;6.418;2023-03-16T09:48:38;12.60;97.30
12115;DHT22;6121;49.810;6.418;2023-03-16T09:51:16;12.40;97.30
12115;DHT22;6121;49.810;6.418;2023-03-16T09:53:45;12.70;97.30
12115;DHT22;6121;49.810;6.418;2023-03-16T09:56:19;13.00;96.60
12115;DHT22;6121;49.810;6.418;2023-03-16T09:58:46;16.60;93.50
12115;DHT22;6121;49.810;6.418;2023-03-16T10:01:18;19.40;90.00
12115;DHT22;6121;49.810;6.418;2023-03-16T10:04:05;21.20;80.30
12115;DHT22;6121;49.810;6.418;2023-03-16T10:06:46;18.70;77.70
12115;DHT22;6121;49.810;6.418;2023-03-16T10:09:46;17.40;82.80
12115;DHT22;6121;49.810;6.418;2023-03-16T10:12:14;17.70;81.80
12115;DHT22;6121;49.810;6.418;2023-03-16T10:15:07;20.60;78.20
12115;DHT22;6121;49.810;6.418;2023-03-16T10:17:39;23.30;72.10
12115;DHT22;6121;49.810;6.418;2023-03-16T10:20:12;22.70;65.10
12115;DHT22;6121;49.810;6.418;2023-03-16T10:22:43;22.30;63.90
12115;DHT22;6121;49.810;6.418;2023-03-16T10:27:51;24.10;62.90
12115;DHT22;6121;49.810;6.418;2023-03-16T10:30:27;25.80;62.30
12115;DHT22;6121;49.810;6.418;2023-03-16T10:32:55;25.30;61.70
12115;DHT22;6121;49.810;6.418;2023-03-16T10:38:08;22.50;59.70
12115;DHT22;6121;49.810;6.418;2023-03-16T10:40:37;21.40;61.80
12115;DHT22;6121;49.810;6.418;2023-03-16T10:43:13;23.70;61.70
12115;DHT22;6121;49.810;6.418;2023-03-16T10:45:41;25.30;59.30
12115;DHT22;6121;49.810;6.418;2023-03-16T10:48:12;26.90;56.90
12115;DHT22;6121;49.810;6.418;2023-03-16T10:50:40;24.70;56.20
12115;DHT22;6121;49.810;6.418;2023-03-16T10:53:17;25.40;59.20
12115;DHT22;6121;49.810;6.418;2023-03-16T10:55:46;25.70;57.40
12115;DHT22;6121;49.810;6.418;2023-03-16T10:58:23;25.60;56.30
12115;DHT22;6121;49.810;6.418;2023-03-16T11:00:50;23.30;57.00
12115;DHT22;6121;49.810;6.418;2023-03-16T11:03:38;22.60;56.90
12115;DHT22;6121;49.810;6.418;2023-03-16T11:06:05;20.50;58.70
12115;DHT22;6121;49.810;6.418;2023-03-16T11:08:34;20.30;57.10
12115;DHT22;6121;49.810;6.418;2023-03-16T11:11:31;20.50;58.50
12115;DHT22;6121;49.810;6.418;2023-03-16T11:14:00;20.40;58.90
12115;DHT22;6121;49.810;6.418;2023-03-16T11:16:34;20.00;58.30
12115;DHT22;6121;49.810;6.418;2023-03-16T11:19:11;20.00;58.90
12115;DHT22;6121;49.810;6.418;2023-03-16T11:21:49;19.20;57.40
12115;DHT22;6121;49.810;6.418;2023-03-16T11:24:32;18.40;57.70
12115;DHT22;6121;49.810;6.418;2023-03-16T11:27:03;17.30;58.60
12115;DHT22;6121;49.810;6.418;2023-03-16T11:32:03;19.90;59.40
12115;DHT22;6121;49.810;6.418;2023-03-16T11:34:31;20.60;58.60
12115;DHT22;6121;49.810;6.418;2023-03-16T11:42:34;28.20;52.40
12115;DHT22;6121;49.810;6.418;2023-03-16T11:51:04;31.10;45.40
12115;DHT22;6121;49.810;6.418;2023-03-16T11:53:48;30.20;43.40
12115;DHT22;6121;49.810;6.418;2023-03-16T11:56:33;30.60;43.60
12115;DHT22;6121;49.810;6.418;2023-03-16T12:04:47;26.40;38.90
12115;DHT22;6121;49.810;6.418;2023-03-16T12:15:44;26.90;42.60
12115;DHT22;6121;49.810;6.418;2023-03-16T12:18:17;28.60;42.50
12115;DHT22;6121;49.810;6.418;2023-03-16T12:20:51;28.70;39.50
12115;DHT22;6121;49.810;6.418;2023-03-16T12:23:31;28.70;38.50
12115;DHT22;6121;49.810;6.418;2023-03-16T12:25:59;28.30;39.60
12115;DHT22;6121;49.810;6.418;2023-03-16T12:28:29;28.00;39.40
12115;DHT22;6121;49.810;6.418;2023-03-16T12:39:39;19.60;46.00
12115;DHT22;6121;49.810;6.418;2023-03-16T12:42:31;19.30;48.40
12115;DHT22;6121;49.810;6.418;2023-03-16T12:45:14;18.60;47.70
12115;DHT22;6121;49.810;6.418;2023-03-16T12:50:12;17.20;48.80
12115;DHT22;6121;49.810;6.418;2023-03-16T12:52:46;16.90;48.90
12115;DHT22;6121;49.810;6.418;2023-03-16T12:57:42;16.20;51.90
12115;DHT22;6121;49.810;6.418;2023-03-16T13:00:09;16.00;51.40
12115;DHT22;6121;49.810;6.418;2023-03-16T13:02:38;16.00;51.80
12115;DHT22;6121;49.810;6.418;2023-03-16T13:05:29;16.30;51.90
12115;DHT22;6121;49.810;6.418;2023-03-16T13:08:17;16.50;53.00
12115;DHT22;6121;49.810;6.418;2023-03-16T13:10:59;16.30;52.90
12115;DHT22;6121;49.810;6.418;2023-03-16T13:13:25;15.60;53.50
12115;DHT22;6121;49.810;6.418;2023-03-16T13:16:07;16.00;54.10
12115;DHT22;6121;49.810;6.418;2023-03-16T13:18:39;15.80;53.20
12115;DHT22;6121;49.810;6.418;2023-03-16T13:21:19;16.00;53.40
12115;DHT22;6121;49.810;6.418;2023-03-16T13:23:57;15.80;55.00
12115;DHT22;6121;49.810;6.418;2023-03-16T13:29:38;15.60;54.40
12115;DHT22;6121;49.810;6.418;2023-03-16T13:32:09;14.80;54.80
12115;DHT22;6121;49.810;6.418;2023-03-16T13:34:47;15.20;56.60
12115;DHT22;6121;49.810;6.418;2023-03-16T13:37:17;15.40;57.00
12115;DHT22;6121;49.810;6.418;2023-03-16T13:40:00;15.20;54.40
12115;DHT22;6121;49.810;6.418;2023-03-16T13:42:31;15.10;54.10
12115;DHT22;6121;49.810;6.418;2023-03-16T13:44:58;15.10;54.10
12115;DHT22;6121;49.810;6.418;2023-03-16T13:47:29;15.00;54.40
12115;DHT22;6121;49.810;6.418;2023-03-16T13:49:58;14.90;55.40
12115;DHT22;6121;49.810;6.418;2023-03-16T13:52:32;14.90;56.30
12115;DHT22;6121;49.810;6.418;2023-03-16T13:55:01;15.20;55.50
12115;DHT22;6121;49.810;6.418;2023-03-16T13:57:31;15.20;55.40
12115;DHT22;6121;49.810;6.418;2023-03-16T14:02:41;15.10;56.00
12115;DHT22;6121;49.810;6.418;2023-03-16T14:05:11;15.30;56.90
12115;DHT22;6121;49.810;6.418;2023-03-16T14:07:39;15.30;55.10
12115;DHT22;6121;49.810;6.418;2023-03-16T14:10:07;15.30;56.50
12115;DHT22;6121;49.810;6.418;2023-03-16T14:12:34;15.20;56.00
12115;DHT22;6121;49.810;6.418;2023-03-16T14:15:04;15.00;56.40
12115;DHT22;6121;49.810;6.418;2023-03-16T14:17:31;14.70;55.80
12115;DHT22;6121;49.810;6.418;2023-03-16T14:20:00;14.40;55.60
12115;DHT22;6121;49.810;6.418;2023-03-16T14:22:33;14.50;56.40
12115;DHT22;6121;49.810;6.418;2023-03-16T14:24:59;14.60;57.60
12115;DHT22;6121;49.810;6.418;2023-03-16T14:30:21;14.60;57.90
12115;DHT22;6121;49.810;6.418;2023-03-16T14:33:03;14.30;58.00
12115;DHT22;6121;49.810;6.418;2023-03-16T14:35:32;14.40;57.50
12115;DHT22;6121;49.810;6.418;2023-03-16T14:40:55;14.70;58.30
12115;DHT22;6121;49.810;6.418;2023-03-16T14:43:28;14.80;58.70
12115;DHT22;6121;49.810;6.418;2023-03-16T14:45:54;14.80;57.60
12115;DHT22;6121;49.810;6.418;2023-03-16T14:48:20;14.90;56.90
12115;DHT22;6121;49.810;6.418;2023-03-16T14:50:55;14.80;56.90
12115;DHT22;6121;49.810;6.418;2023-03-16T14:53:22;14.60;57.70
12115;DHT22;6121;49.810;6.418;2023-03-16T14:55:49;14.70;58.70
12115;DHT22;6121;49.810;6.418;2023-03-16T14:58:15;14.70;58.00
12115;DHT22;6121;49.810;6.418;2023-03-16T15:00:41;14.60;58.10
12115;DHT22;6121;49.810;6.418;2023-03-16T15:03:14;14.50;58.10
12115;DHT22;6121;49.810;6.418;2023-03-16T15:05:42;14.50;59.30
12115;DHT22;6121;49.810;6.418;2023-03-16T15:10:43;14.30;59.00
12115;DHT22;6121;49.810;6.418;2023-03-16T15:13:16;14.30;58.40
12115;DHT22;6121;49.810;6.418;2023-03-16T15:16:03;14.20;58.40
12115;DHT22;6121;49.810;6.418;2023-03-16T15:18:31;14.20;57.90
12115;DHT22;6121;49.810;6.418;2023-03-16T15:20:59;14.00;59.00
12115;DHT22;6121;49.810;6.418;2023-03-16T15:23:25;14.10;58.80
12115;DHT22;6121;49.810;6.418;2023-03-16T15:25:52;13.90;59.30
12115;DHT22;6121;49.810;6.418;2023-03-16T15:28:25;13.90;59.70
12115;DHT22;6121;49.810;6.418;2023-03-16T15:30:53;14.10;59.90
12115;DHT22;6121;49.810;6.418;2023-03-16T15:33:20;14.00;60.30
12115;DHT22;6121;49.810;6.418;2023-03-16T15:35:48;13.80;60.70
12115;DHT22;6121;49.810;6.418;2023-03-16T15:38:21;14.00;60.70
12115;DHT22;6121;49.810;6.418;2023-03-16T15:40:48;13.80;59.80
12115;DHT22;6121;49.810;6.418;2023-03-16T15:43:17;13.70;60.10
12115;DHT22;6121;49.810;6.418;2023-03-16T15:45:45;13.80;60.60
12115;DHT22;6121;49.810;6.418;2023-03-16T15:48:12;13.80;60.20
12115;DHT22;6121;49.810;6.418;2023-03-16T15:50:39;13.90;59.40
12115;DHT22;6121;49.810;6.418;2023-03-16T15:53:14;13.80;59.70
12115;DHT22;6121;49.810;6.418;2023-03-16T15:55:45;13.70;60.70
12115;DHT22;6121;49.810;6.418;2023-03-16T15:58:20;13.70;61.10
12115;DHT22;6121;49.810;6.418;2023-03-16T16:00:49;13.70;60.90
12115;DHT22;6121;49.810;6.418;2023-03-16T16:03:15;13.70;60.20
12115;DHT22;6121;49.810;6.418;2023-03-16T16:05:40;13.70;60.20
12115;DHT22;6121;49.810;6.418;2023-03-16T16:08:07;13.80;60.40
12115;DHT22;6121;49.810;6.418;2023-03-16T16:10:33;13.60;60.40
12115;DHT22;6121;49.810;6.418;2023-03-16T16:12:59;13.50;61.20
12115;DHT22;6121;49.810;6.418;2023-03-16T16:15:29;13.50;60.50
12115;DHT22;6121;49.810;6.418;2023-03-16T16:18:00;13.60;60.60
12115;DHT22;6121;49.810;6.418;2023-03-16T16:20:28;13.60;60.70
12115;DHT22;6121;49.810;6.418;2023-03-16T16:22:55;13.50;61.00
12115;DHT22;6121;49.810;6.418;2023-03-16T16:25:36;13.50;60.90
12115;DHT22;6121;49.810;6.418;2023-03-16T16:28:15;13.60;60.80
12115;DHT22;6121;49.810;6.418;2023-03-16T16:30:42;13.80;60.50
12115;DHT22;6121;49.810;6.418;2023-03-16T16:33:32;13.50;60.10
12115;DHT22;6121;49.810;6.418;2023-03-16T16:36:00;13.40;61.70
12115;DHT22;6121;49.810;6.418;2023-03-16T16:38:27;13.50;61.50
12115;DHT22;6121;49.810;6.418;2023-03-16T16:40:55;13.20;61.90
12115;DHT22;6121;49.810;6.418;2023-03-16T16:43:25;13.30;62.50
12115;DHT22;6121;49.810;6.418;2023-03-16T16:45:53;13.20;62.40
12115;DHT22;6121;49.810;6.418;2023-03-16T16:48:35;13.30;61.70
12115;DHT22;6121;49.810;6.418;2023-03-16T16:51:03;13.30;61.90
12115;DHT22;6121;49.810;6.418;2023-03-16T16:53:31;13.20;62.30
12115;DHT22;6121;49.810;6.418;2023-03-16T16:55:57;13.10;62.90
12115;DHT22;6121;49.810;6.418;2023-03-16T16:58:24;13.20;62.50
12115;DHT22;6121;49.810;6.418;2023-03-16T17:00:55;13.00;62.60
12115;DHT22;6121;49.810;6.418;2023-03-16T17:03:22;13.00;62.90
12115;DHT22;6121;49.810;6.418;2023-03-16T17:05:49;13.00;63.00
12115;DHT22;6121;49.810;6.418;2023-03-16T17:08:16;12.80;63.20
12115;DHT22;6121;49.810;6.418;2023-03-16T17:10:42;13.00;61.20
12115;DHT22;6121;49.810;6.418;2023-03-16T17:13:23;12.80;62.40
12115;DHT22;6121;49.810;6.418;2023-03-16T17:15:52;12.70;61.40
12115;DHT22;6121;49.810;6.418;2023-03-16T17:18:20;12.70;61.50
12115;DHT22;6121;49.810;6.418;2023-03-16T17:20:47;12.40;61.50
12115;DHT22;6121;49.810;6.418;2023-03-16T17:25:49;12.70;60.30
12115;DHT22;6121;49.810;6.418;2023-03-16T17:28:15;12.80;60.10